sensor_id;sensor_type;location;lat;lon;timestamp;temperature;humidity
74809;DHT22;63338;39.544;2.596;2023-03-23T00:01:11;13.80;91.60
74809;DHT22;63338;39.544;2.596;2023-03-23T00:03:39;13.80;91.80
74809;DHT22;63338;39.544;2.596;2023-03-23T00:06:08;13.80;91.90
74809;DHT22;63338;39.544;2.596;2023-03-23T00:08:38;13.80;91.60
74809;DHT22;63338;39.544;2.596;2023-03-23T00:11:15;13.80;91.70
74809;DHT22;63338;39.544;2.596;2023-03-23T00:13:41;13.70;91.90
74809;DHT22;63338;39.544;2.596;2023-03-23T00:16:08;13.80;91.90
74809;DHT22;63338;39.544;2.596;2023-03-23T00:18:50;13.90;92.10
74809;DHT22;63338;39.544;2.596;2023-03-23T00:21:22;13.80;91.80
74809;DHT22;63338;39.544;2.596;2023-03-23T00:23:51;13.90;91.70
74809;DHT22;63338;39.544;2.596;2023-03-23T00:26:18;13.90;91.90
74809;DHT22;63338;39.544;2.596;2023-03-23T00:28:44;13.80;92.00
74809;DHT22;63338;39.544;2.596;2023-03-23T00:31:12;13.80;91.90
74809;DHT22;63338;39.544;2.596;2023-03-23T00:33:39;13.80;91.90
74809;DHT22;63338;39.544;2.596;2023-03-23T00:36:11;13.80;91.80
74809;DHT22;63338;39.544;2.596;2023-03-23T00:38:39;13.80;92.00
74809;DHT22;63338;39.544;2.596;2023-03-23T00:41:05;13.80;91.90
74809;DHT22;63338;39.544;2.596;2023-03-23T00:43:32;13.80;92.10
74809;DHT22;63338;39.544;2.596;2023-03-23T00:46:02;13.70;92.30
74809;DHT22;63338;39.544;2.596;2023-03-23T00:48:34;13.80;92.30
74809;DHT22;63338;39.544;2.596;2023-03-23T00:51:02;13.80;92.40
74809;DHT22;63338;39.544;2.596;2023-03-23T00:53:32;13.80;92.30
74809;DHT22;63338;39.544;2.596;2023-03-23T00:55:58;13.70;92.30
74809;DHT22;63338;39.544;2.596;2023-03-23T00:58:25;13.70;92.20
74809;DHT22;63338;39.544;2.596;2023-03-23T01:00:51;13.70;92.10
74809;DHT22;63338;39.544;2.596;2023-03-23T01:03:17;13.70;92.10
74809;DHT22;63338;39.544;2.596;2023-03-23T01:05:44;13.60;92.40
74809;DHT22;63338;39.544;2.596;2023-03-23T01:08:13;13.60;92.30
74809;DHT22;63338;39.544;2.596;2023-03-23T01:10:40;13.60;92.40
74809;DHT22;63338;39.544;2.596;2023-03-23T01:13:07;13.60;91.90
74809;DHT22;63338;39.544;2.596;2023-03-23T01:15:33;13.50;91.80
74809;DHT22;63338;39.544;2.596;2023-03-23T01:18:01;13.60;91.90
74809;DHT22;63338;39.544;2.596;2023-03-23T01:20:28;13.60;91.90
74809;DHT22;63338;39.544;2.596;2023-03-23T01:22:58;13.50;92.00
74809;DHT22;63338;39.544;2.596;2023-03-23T01:25:32;13.50;92.00
74809;DHT22;63338;39.544;2.596;2023-03-23T01:28:01;13.40;92.00
74809;DHT22;63338;39.544;2.596;2023-03-23T01:30:28;13.40;91.90
74809;DHT22;63338;39.544;2.596;2023-03-23T01:32:55;13.40;92.20
74809;DHT22;63338;39.544;2.596;2023-03-23T01:35:21;13.30;92.50
74809;DHT22;63338;39.544;2.596;2023-03-23T01:37:47;13.30;92.80
74809;DHT22;63338;39.544;2.596;2023-03-23T01:40:14;13.30;92.80
74809;DHT22;63338;39.544;2.596;2023-03-23T01:42:41;13.30;92.80
74809;DHT22;63338;39.544;2.596;2023-03-23T01:48:00;13.30;92.70
74809;DHT22;63338;39.544;2.596;2023-03-23T01:50:30;13.30;92.70
74809;DHT22;63338;39.544;2.596;2023-03-23T01:52:58;13.30;93.10
74809;DHT22;63338;39.544;2.596;2023-03-23T01:55:26;13.20;93.00
74809;DHT22;63338;39.544;2.596;2023-03-23T01:57:54;13.30;92.80
74809;DHT22;63338;39.544;2.596;2023-03-23T02:00:21;13.20;93.10
74809;DHT22;63338;39.544;2.596;2023-03-23T02:02:49;13.20;93.00
74809;DHT22;63338;39.544;2.596;2023-03-23T02:05:32;13.20;92.90
74809;DHT22;63338;39.544;2.596;2023-03-23T02:08:02;13.30;92.80
74809;DHT22;63338;39.544;2.596;2023-03-23T02:10:32;13.20;92.80
74809;DHT22;63338;39.544;2.596;2023-03-23T02:12:59;13.20;92.70
74809;DHT22;63338;39.544;2.596;2023-03-23T02:15:30;13.20;93.00
74809;DHT22;63338;39.544;2.596;2023-03-23T02:18:08;13.30;92.90
74809;DHT22;63338;39.544;2.596;2023-03-23T02:26:50;13.20;91.90
74809;DHT22;63338;39.544;2.596;2023-03-23T02:32:12;13.00;91.60
74809;DHT22;63338;39.544;2.596;2023-03-23T02:35:03;13.00;91.30
74809;DHT22;63338;39.544;2.596;2023-03-23T02:37:37;12.90;91.80
74809;DHT22;63338;39.544;2.596;2023-03-23T02:40:39;12.90;91.70
74809;DHT22;63338;39.544;2.596;2023-03-23T02:43:13;12.90;91.60
74809;DHT22;63338;39.544;2.596;2023-03-23T02:45:42;12.80;91.60
74809;DHT22;63338;39.544;2.596;2023-03-23T02:48:10;12.80;91.30
74809;DHT22;63338;39.544;2.596;2023-03-23T02:50:40;12.80;91.70
74809;DHT22;63338;39.544;2.596;2023-03-23T02:53:10;12.80;91.80
74809;DHT22;63338;39.544;2.596;2023-03-23T02:55:39;12.70;92.10
74809;DHT22;63338;39.544;2.596;2023-03-23T02:58:09;12.80;91.90
74809;DHT22;63338;39.544;2.596;2023-03-23T03:00:35;12.80;92.10
74809;DHT22;63338;39.544;2.596;2023-03-23T03:03:03;12.80;91.90
74809;DHT22;63338;39.544;2.596;2023-03-23T03:08:52;12.90;92.10
74809;DHT22;63338;39.544;2.596;2023-03-23T03:11:16;12.80;92.10
74809;DHT22;63338;39.544;2.596;2023-03-23T03:13:59;12.90;91.90
74809;DHT22;63338;39.544;2.596;2023-03-23T03:17:00;12.80;91.80
74809;DHT22;63338;39.544;2.596;2023-03-23T03:19:33;12.80;92.10
74809;DHT22;63338;39.544;2.596;2023-03-23T03:22:01;12.80;92.20
74809;DHT22;63338;39.544;2.596;2023-03-23T03:24:29;12.70;93.60
74809;DHT22;63338;39.544;2.596;2023-03-23T03:26:59;12.70;93.70
74809;DHT22;63338;39.544;2.596;2023-03-23T03:29:30;12.50;93.90
74809;DHT22;63338;39.544;2.596;2023-03-23T03:31:59;12.50;94.00
74809;DHT22;63338;39.544;2.596;2023-03-23T03:34:27;12.40;94.10
74809;DHT22;63338;39.544;2.596;2023-03-23T03:36:55;12.40;94.20
74809;DHT22;63338;39.544;2.596;2023-03-23T03:39:25;12.40;94.20
74809;DHT22;63338;39.544;2.596;2023-03-23T03:41:51;12.30;94.10
74809;DHT22;63338;39.544;2.596;2023-03-23T03:44:17;12.50;94.20
74809;DHT22;63338;39.544;2.596;2023-03-23T03:46:43;12.40;94.00
74809;DHT22;63338;39.544;2.596;2023-03-23T03:49:10;12.40;94.00
74809;DHT22;63338;39.544;2.596;2023-03-23T03:51:39;12.40;93.90
74809;DHT22;63338;39.544;2.596;2023-03-23T03:54:09;12.30;93.80
74809;DHT22;63338;39.544;2.596;2023-03-23T03:56:36;12.30;93.90
74809;DHT22;63338;39.544;2.596;2023-03-23T03:59:07;12.40;93.90
74809;DHT22;63338;39.544;2.596;2023-03-23T04:01:34;12.40;94.10
74809;DHT22;63338;39.544;2.596;2023-03-23T04:04:00;12.30;94.10
74809;DHT22;63338;39.544;2.596;2023-03-23T04:06:26;12.30;94.40
74809;DHT22;63338;39.544;2.596;2023-03-23T04:08:57;12.40;94.10
74809;DHT22;63338;39.544;2.596;2023-03-23T04:11:25;12.40;94.20
74809;DHT22;63338;39.544;2.596;2023-03-23T04:13:51;12.20;94.20
74809;DHT22;63338;39.544;2.596;2023-03-23T04:16:18;12.40;94.20
74809;DHT22;63338;39.544;2.596;2023-03-23T04:18:44;12.30;94.30
74809;DHT22;63338;39.544;2.596;2023-03-23T04:21:11;12.20;94.30
74809;DHT22;63338;39.544;2.596;2023-03-23T04:23:37;12.30;94.40
74809;DHT22;63338;39.544;2.596;2023-03-23T04:26:04;12.20;94.40
74809;DHT22;63338;39.544;2.596;2023-03-23T04:28:30;12.30;94.50
74809;DHT22;63338;39.544;2.596;2023-03-23T04:31:00;12.20;94.50
74809;DHT22;63338;39.544;2.596;2023-03-23T04:33:28;12.20;94.50
74809;DHT22;63338;39.544;2.596;2023-03-23T04:35:57;12.30;94.50
74809;DHT22;63338;39.544;2.596;2023-03-23T04:38:27;12.30;94.30
74809;DHT22;63338;39.544;2.596;2023-03-23T04:40:58;12.30;94.30
74809;DHT22;63338;39.544;2.596;2023-03-23T04:43:27;12.20;94.30
74809;DHT22;63338;39.544;2.596;2023-03-23T04:45:55;12.30;94.20
74809;DHT22;63338;39.544;2.596;2023-03-23T04:48:26;12.20;94.30
74809;DHT22;63338;39.544;2.596;2023-03-23T04:50:52;12.30;94.30
74809;DHT22;63338;39.544;2.596;2023-03-23T04:53:19;12.30;94.40
74809;DHT22;63338;39.544;2.596;2023-03-23T04:55:46;12.40;94.50
74809;DHT22;63338;39.544;2.596;2023-03-23T04:58:13;12.40;94.60
74809;DHT22;63338;39.544;2.596;2023-03-23T05:00:40;12.50;94.60
74809;DHT22;63338;39.544;2.596;2023-03-23T05:03:06;12.50;95.00
74809;DHT22;63338;39.544;2.596;2023-03-23T05:05:34;12.40;94.80
74809;DHT22;63338;39.544;2.596;2023-03-23T05:08:00;12.50;95.00
74809;DHT22;63338;39.544;2.596;2023-03-23T05:10:26;12.40;95.10
74809;DHT22;63338;39.544;2.596;2023-03-23T05:12:53;12.40;94.90
74809;DHT22;63338;39.544;2.596;2023-03-23T05:15:19;12.40;95.00
74809;DHT22;63338;39.544;2.596;2023-03-23T05:17:45;12.30;95.10
74809;DHT22;63338;39.544;2.596;2023-03-23T05:20:16;12.40;94.90
74809;DHT22;63338;39.544;2.596;2023-03-23T05:22:48;12.30;94.90
74809;DHT22;63338;39.544;2.596;2023-03-23T05:25:16;12.30;94.90
74809;DHT22;63338;39.544;2.596;2023-03-23T05:27:45;12.40;95.10
74809;DHT22;63338;39.544;2.596;2023-03-23T05:30:15;12.40;95.50
74809;DHT22;63338;39.544;2.596;2023-03-23T05:32:43;12.40;95.30
74809;DHT22;63338;39.544;2.596;2023-03-23T05:35:11;12.30;95.20
74809;DHT22;63338;39.544;2.596;2023-03-23T05:37:38;12.20;95.40
74809;DHT22;63338;39.544;2.596;2023-03-23T05:40:05;12.30;95.20
74809;DHT22;63338;39.544;2.596;2023-03-23T05:42:34;12.30;95.20
74809;DHT22;63338;39.544;2.596;2023-03-23T05:45:05;12.20;95.70
74809;DHT22;63338;39.544;2.596;2023-03-23T05:47:31;12.30;95.60
74809;DHT22;63338;39.544;2.596;2023-03-23T05:49:58;12.20;95.60
74809;DHT22;63338;39.544;2.596;2023-03-23T05:52:24;12.30;95.50
74809;DHT22;63338;39.544;2.596;2023-03-23T05:54:51;12.30;95.60
74809;DHT22;63338;39.544;2.596;2023-03-23T05:57:17;12.50;95.50
74809;DHT22;63338;39.544;2.596;2023-03-23T05:59:44;12.40;95.80
74809;DHT22;63338;39.544;2.596;2023-03-23T06:02:11;12.40;96.00
74809;DHT22;63338;39.544;2.596;2023-03-23T06:04:40;12.50;96.10
74809;DHT22;63338;39.544;2.596;2023-03-23T06:07:07;12.60;95.90
74809;DHT22;63338;39.544;2.596;2023-03-23T06:09:38;12.70;96.20
74809;DHT22;63338;39.544;2.596;2023-03-23T06:12:04;12.70;94.90
74809;DHT22;63338;39.544;2.596;2023-03-23T06:14:30;12.70;94.90
74809;DHT22;63338;39.544;2.596;2023-03-23T06:16:57;12.80;95.00
74809;DHT22;63338;39.544;2.596;2023-03-23T06:19:23;12.90;95.10
74809;DHT22;63338;39.544;2.596;2023-03-23T06:21:49;12.80;95.10
74809;DHT22;63338;39.544;2.596;2023-03-23T06:24:15;12.90;95.20
74809;DHT22;63338;39.544;2.596;2023-03-23T06:26:41;13.00;95.00
74809;DHT22;63338;39.544;2.596;2023-03-23T06:29:07;13.10;95.40
74809;DHT22;63338;39.544;2.596;2023-03-23T06:31:50;13.20;95.60
74809;DHT22;63338;39.544;2.596;2023-03-23T06:34:17;13.20;95.40
74809;DHT22;63338;39.544;2.596;2023-03-23T06:36:43;13.30;95.50
74809;DHT22;63338;39.544;2.596;2023-03-23T06:39:10;13.30;95.40
74809;DHT22;63338;39.544;2.596;2023-03-23T06:41:37;13.30;95.60
74809;DHT22;63338;39.544;2.596;2023-03-23T06:44:05;13.40;95.70
74809;DHT22;63338;39.544;2.596;2023-03-23T06:46:32;13.40;95.50
74809;DHT22;63338;39.544;2.596;2023-03-23T06:48:58;13.50;95.50
74809;DHT22;63338;39.544;2.596;2023-03-23T06:51:24;13.60;95.50
74809;DHT22;63338;39.544;2.596;2023-03-23T06:53:50;13.60;95.70
74809;DHT22;63338;39.544;2.596;2023-03-23T06:56:16;13.80;95.80
74809;DHT22;63338;39.544;2.596;2023-03-23T06:58:42;14.00;95.80
74809;DHT22;63338;39.544;2.596;2023-03-23T07:01:11;14.10;95.60
74809;DHT22;63338;39.544;2.596;2023-03-23T07:03:38;14.20;95.70
74809;DHT22;63338;39.544;2.596;2023-03-23T07:06:07;14.30;95.70
74809;DHT22;63338;39.544;2.596;2023-03-23T07:08:33;14.40;95.70
74809;DHT22;63338;39.544;2.596;2023-03-23T07:11:02;14.60;95.60
74809;DHT22;63338;39.544;2.596;2023-03-23T07:13:29;14.70;95.70
74809;DHT22;63338;39.544;2.596;2023-03-23T07:15:55;14.90;95.70
74809;DHT22;63338;39.544;2.596;2023-03-23T07:18:22;15.20;95.60
74809;DHT22;63338;39.544;2.596;2023-03-23T07:20:52;15.40;95.50
74809;DHT22;63338;39.544;2.596;2023-03-23T07:23:22;15.50;93.30
74809;DHT22;63338;39.544;2.596;2023-03-23T07:25:48;15.70;92.60
74809;DHT22;63338;39.544;2.596;2023-03-23T07:28:14;15.90;91.50
74809;DHT22;63338;39.544;2.596;2023-03-23T07:30:42;16.10;90.80
74809;DHT22;63338;39.544;2.596;2023-03-23T07:33:08;16.40;90.10
74809;DHT22;63338;39.544;2.596;2023-03-23T07:35:35;16.50;89.30
74809;DHT22;63338;39.544;2.596;2023-03-23T07:38:03;16.50;88.60
74809;DHT22;63338;39.544;2.596;2023-03-23T07:40:29;16.60;87.80
74809;DHT22;63338;39.544;2.596;2023-03-23T07:42:59;16.80;87.90
74809;DHT22;63338;39.544;2.596;2023-03-23T07:45:26;17.40;87.60
74809;DHT22;63338;39.544;2.596;2023-03-23T07:47:53;18.40;84.60
74809;DHT22;63338;39.544;2.596;2023-03-23T07:50:20;19.20;82.30
74809;DHT22;63338;39.544;2.596;2023-03-23T07:52:51;19.70;80.00
74809;DHT22;63338;39.544;2.596;2023-03-23T07:55:20;20.20;77.90
74809;DHT22;63338;39.544;2.596;2023-03-23T07:57:49;20.80;76.30
74809;DHT22;63338;39.544;2.596;2023-03-23T08:00:17;21.50;73.20
74809;DHT22;63338;39.544;2.596;2023-03-23T08:02:47;22.00;71.70
74809;DHT22;63338;39.544;2.596;2023-03-23T08:05:15;22.60;69.40
74809;DHT22;63338;39.544;2.596;2023-03-23T08:07:42;23.00;68.40
74809;DHT22;63338;39.544;2.596;2023-03-23T08:10:09;23.50;67.60
74809;DHT22;63338;39.544;2.596;2023-03-23T08:12:40;24.10;65.60
74809;DHT22;63338;39.544;2.596;2023-03-23T08:15:09;24.40;64.30
74809;DHT22;63338;39.544;2.596;2023-03-23T08:17:39;24.70;63.70
74809;DHT22;63338;39.544;2.596;2023-03-23T08:20:06;25.10;63.00
74809;DHT22;63338;39.544;2.596;2023-03-23T08:22:37;25.30;61.90
74809;DHT22;63338;39.544;2.596;2023-03-23T08:25:05;25.40;61.40
74809;DHT22;63338;39.544;2.596;2023-03-23T08:27:32;25.50;61.00
74809;DHT22;63338;39.544;2.596;2023-03-23T08:29:58;25.50;61.10
74809;DHT22;63338;39.544;2.596;2023-03-23T08:32:25;25.60;61.00
74809;DHT22;63338;39.544;2.596;2023-03-23T08:34:52;25.80;60.50
74809;DHT22;63338;39.544;2.596;2023-03-23T08:37:18;26.10;59.70
74809;DHT22;63338;39.544;2.596;2023-03-23T08:39:44;26.20;59.20
74809;DHT22;63338;39.544;2.596;2023-03-23T08:42:11;26.50;58.20
74809;DHT22;63338;39.544;2.596;2023-03-23T08:44:40;26.60;57.90
74809;DHT22;63338;39.544;2.596;2023-03-23T08:47:06;26.60;57.60
74809;DHT22;63338;39.544;2.596;2023-03-23T08:49:32;26.60;57.30
74809;DHT22;63338;39.544;2.596;2023-03-23T08:52:00;26.90;57.10
74809;DHT22;63338;39.544;2.596;2023-03-23T08:54:27;26.90;56.80
74809;DHT22;63338;39.544;2.596;2023-03-23T08:57:01;27.10;56.60
74809;DHT22;63338;39.544;2.596;2023-03-23T08:59:28;27.40;56.10
74809;DHT22;63338;39.544;2.596;2023-03-23T09:01:54;27.60;56.40
74809;DHT22;63338;39.544;2.596;2023-03-23T09:04:24;27.50;55.90
74809;DHT22;63338;39.544;2.596;2023-03-23T09:06:50;27.60;55.70
74809;DHT22;63338;39.544;2.596;2023-03-23T09:09:16;27.60;55.70
74809;DHT22;63338;39.544;2.596;2023-03-23T09:11:42;27.70;55.90
74809;DHT22;63338;39.544;2.596;2023-03-23T09:14:13;27.90;55.40
74809;DHT22;63338;39.544;2.596;2023-03-23T09:16:39;28.00;55.00
74809;DHT22;63338;39.544;2.596;2023-03-23T09:19:05;28.10;54.90
74809;DHT22;63338;39.544;2.596;2023-03-23T09:21:34;28.10;54.80
74809;DHT22;63338;39.544;2.596;2023-03-23T09:24:01;28.20;54.50
74809;DHT22;63338;39.544;2.596;2023-03-23T09:26:28;28.00;54.60
74809;DHT22;63338;39.544;2.596;2023-03-23T09:28:54;28.00;54.60
74809;DHT22;63338;39.544;2.596;2023-03-23T09:31:22;28.00;54.50
74809;DHT22;63338;39.544;2.596;2023-03-23T09:33:53;28.00;54.60
74809;DHT22;63338;39.544;2.596;2023-03-23T09:36:21;28.30;54.20
74809;DHT22;63338;39.544;2.596;2023-03-23T09:38:48;28.40;53.90
74809;DHT22;63338;39.544;2.596;2023-03-23T09:46:56;28.60;53.50
74809;DHT22;63338;39.544;2.596;2023-03-23T09:49:33;28.60;53.10
74809;DHT22;63338;39.544;2.596;2023-03-23T09:52:13;28.60;53.60
74809;DHT22;63338;39.544;2.596;2023-03-23T10:00:02;29.30;51.70
74809;DHT22;63338;39.544;2.596;2023-03-23T10:03:00;29.40;51.40
74809;DHT22;63338;39.544;2.596;2023-03-23T10:05:35;29.50;50.80
74809;DHT22;63338;39.544;2.596;2023-03-23T10:08:12;29.60;51.40
74809;DHT22;63338;39.544;2.596;2023-03-23T10:10:59;29.30;51.50
74809;DHT22;63338;39.544;2.596;2023-03-23T10:16:21;28.90;52.70
74809;DHT22;63338;39.544;2.596;2023-03-23T10:21:21;29.40;51.00
74809;DHT22;63338;39.544;2.596;2023-03-23T10:24:08;29.30;51.20
74809;DHT22;63338;39.544;2.596;2023-03-23T10:26:41;29.20;51.90
74809;DHT22;63338;39.544;2.596;2023-03-23T10:29:19;29.20;51.40
74809;DHT22;63338;39.544;2.596;2023-03-23T10:31:53;29.00;52.10
74809;DHT22;63338;39.544;2.596;2023-03-23T10:34:32;29.10;52.30
74809;DHT22;63338;39.544;2.596;2023-03-23T10:37:14;29.10;52.00
74809;DHT22;63338;39.544;2.596;2023-03-23T10:39:59;29.20;51.60
74809;DHT22;63338;39.544;2.596;2023-03-23T10:42:28;29.20;51.20
74809;DHT22;63338;39.544;2.596;2023-03-23T10:44:56;29.40;51.40
74809;DHT22;63338;39.544;2.596;2023-03-23T10:47:24;29.40;50.80
74809;DHT22;63338;39.544;2.596;2023-03-23T10:49:54;29.40;51.30
74809;DHT22;63338;39.544;2.596;2023-03-23T10:52:36;29.50;50.80
74809;DHT22;63338;39.544;2.596;2023-03-23T10:55:20;29.60;50.80
74809;DHT22;63338;39.544;2.596;2023-03-23T10:58:28;29.70;50.40
74809;DHT22;63338;39.544;2.596;2023-03-23T11:00:56;29.50;50.50
74809;DHT22;63338;39.544;2.596;2023-03-23T11:03:45;29.30;51.10
74809;DHT22;63338;39.544;2.596;2023-03-23T11:06:23;28.80;52.20
74809;DHT22;63338;39.544;2.596;2023-03-23T11:11:32;28.60;53.00
74809;DHT22;63338;39.544;2.596;2023-03-23T11:14:26;28.70;52.90
74809;DHT22;63338;39.544;2.596;2023-03-23T11:16:59;29.00;52.40
74809;DHT22;63338;39.544;2.596;2023-03-23T11:19:36;29.10;51.40
74809;DHT22;63338;39.544;2.596;2023-03-23T11:24:41;29.00;51.90
74809;DHT22;63338;39.544;2.596;2023-03-23T11:27:09;28.90;52.30
74809;DHT22;63338;39.544;2.596;2023-03-23T11:29:47;28.70;52.30
74809;DHT22;63338;39.544;2.596;2023-03-23T11:32:15;28.40;52.70
74809;DHT22;63338;39.544;2.596;2023-03-23T11:34:43;28.40;53.50
74809;DHT22;63338;39.544;2.596;2023-03-23T11:37:28;28.50;53.10
74809;DHT22;63338;39.544;2.596;2023-03-23T11:39:58;28.40;52.90
74809;DHT22;63338;39.544;2.596;2023-03-23T11:45:30;27.90;53.80
74809;DHT22;63338;39.544;2.596;2023-03-23T11:48:20;27.60;54.30
74809;DHT22;63338;39.544;2.596;2023-03-23T11:51:17;27.40;54.70
74809;DHT22;63338;39.544;2.596;2023-03-23T11:53:55;26.90;55.30
74809;DHT22;63338;39.544;2.596;2023-03-23T11:56:25;26.60;56.00
74809;DHT22;63338;39.544;2.596;2023-03-23T11:58:55;26.10;57.50
74809;DHT22;63338;39.544;2.596;2023-03-23T12:15:49;24.90;59.80
74809;DHT22;63338;39.544;2.596;2023-03-23T12:21:27;24.60;60.40
74809;DHT22;63338;39.544;2.596;2023-03-23T12:30:02;24.00;61.90
74809;DHT22;63338;39.544;2.596;2023-03-23T12:38:16;23.00;64.50
74809;DHT22;63338;39.544;2.596;2023-03-23T12:41:07;22.70;65.90
74809;DHT22;63338;39.544;2.596;2023-03-23T12:49:08;21.90;67.60
74809;DHT22;63338;39.544;2.596;2023-03-23T12:57:10;21.30;69.10
74809;DHT22;63338;39.544;2.596;2023-03-23T13:02:36;21.10;69.80
74809;DHT22;63338;39.544;2.596;2023-03-23T13:10:47;20.60;72.40
74809;DHT22;63338;39.544;2.596;2023-03-23T13:13:18;20.50;72.90
74809;DHT22;63338;39.544;2.596;2023-03-23T13:16:39;20.30;73.30
74809;DHT22;63338;39.544;2.596;2023-03-23T13:22:06;20.20;74.40
74809;DHT22;63338;39.544;2.596;2023-03-23T13:24:38;20.10;74.50
74809;DHT22;63338;39.544;2.596;2023-03-23T13:27:09;19.90;75.00
74809;DHT22;63338;39.544;2.596;2023-03-23T13:29:44;19.80;75.20
74809;DHT22;63338;39.544;2.596;2023-03-23T13:32:12;19.80;75.40
74809;DHT22;63338;39.544;2.596;2023-03-23T13:34:41;19.90;75.50
74809;DHT22;63338;39.544;2.596;2023-03-23T13:37:33;19.80;75.70
74809;DHT22;63338;39.544;2.596;2023-03-23T13:42:51;19.70;75.70
74809;DHT22;63338;39.544;2.596;2023-03-23T13:47:47;19.60;76.20
74809;DHT22;63338;39.544;2.596;2023-03-23T13:52:52;19.60;76.40
74809;DHT22;63338;39.544;2.596;2023-03-23T13:55:29;19.50;76.60
74809;DHT22;63338;39.544;2.596;2023-03-23T14:11:00;19.40;77.20
74809;DHT22;63338;39.544;2.596;2023-03-23T14:16:31;19.30;77.00
74809;DHT22;63338;39.544;2.596;2023-03-23T14:19:00;19.30;77.70
74809;DHT22;63338;39.544;2.596;2023-03-23T14:21:36;19.20;77.80
74809;DHT22;63338;39.544;2.596;2023-03-23T14:24:15;19.10;77.80
74809;DHT22;63338;39.544;2.596;2023-03-23T14:26:42;19.20;78.00
74809;DHT22;63338;39.544;2.596;2023-03-23T14:29:11;19.10;78.30
74809;DHT22;63338;39.544;2.596;2023-03-23T14:31:38;19.10;78.80
74809;DHT22;63338;39.544;2.596;2023-03-23T14:34:13;19.10;78.90
74809;DHT22;63338;39.544;2.596;2023-03-23T14:36:40;19.00;79.00
74809;DHT22;63338;39.544;2.596;2023-03-23T14:39:25;19.10;79.20
74809;DHT22;63338;39.544;2.596;2023-03-23T14:42:13;19.00;79.20
74809;DHT22;63338;39.544;2.596;2023-03-23T14:44:44;18.90;79.70
74809;DHT22;63338;39.544;2.596;2023-03-23T14:47:23;18.80;79.90
74809;DHT22;63338;39.544;2.596;2023-03-23T14:49:59;18.80;80.20
74809;DHT22;63338;39.544;2.596;2023-03-23T14:52:28;18.70;80.40
74809;DHT22;63338;39.544;2.596;2023-03-23T14:54:55;18.70;80.20
74809;DHT22;63338;39.544;2.596;2023-03-23T14:57:30;18.80;80.40
74809;DHT22;63338;39.544;2.596;2023-03-23T15:00:03;18.70;80.50
74809;DHT22;63338;39.544;2.596;2023-03-23T15:02:36;18.60;80.50
74809;DHT22;63338;39.544;2.596;2023-03-23T15:05:15;18.60;80.60
74809;DHT22;63338;39.544;2.596;2023-03-23T15:07:45;18.60;80.90
74809;DHT22;63338;39.544;2.596;2023-03-23T15:10:18;18.60;81.00
74809;DHT22;63338;39.544;2.596;2023-03-23T15:12:47;18.60;81.10
74809;DHT22;63338;39.544;2.596;2023-03-23T15:15:33;18.70;80.90
74809;DHT22;63338;39.544;2.596;2023-03-23T15:18:00;18.80;80.80
74809;DHT22;63338;39.544;2.596;2023-03-23T15:20:47;18.60;81.00
74809;DHT22;63338;39.544;2.596;2023-03-23T15:23:22;18.70;80.90
74809;DHT22;63338;39.544;2.596;2023-03-23T15:25:53;18.80;80.50
74809;DHT22;63338;39.544;2.596;2023-03-23T15:28:22;18.80;80.70
74809;DHT22;63338;39.544;2.596;2023-03-23T15:30:57;18.80;80.90
74809;DHT22;63338;39.544;2.596;2023-03-23T15:33:24;18.80;80.80
74809;DHT22;63338;39.544;2.596;2023-03-23T15:35:55;18.80;80.80
74809;DHT22;63338;39.544;2.596;2023-03-23T15:38:32;18.60;81.00
74809;DHT22;63338;39.544;2.596;2023-03-23T15:41:05;18.60;81.50
74809;DHT22;63338;39.544;2.596;2023-03-23T15:43:53;18.60;81.40
74809;DHT22;63338;39.544;2.596;2023-03-23T15:46:23;18.70;81.80
74809;DHT22;63338;39.544;2.596;2023-03-23T15:51:27;18.60;81.90
74809;DHT22;63338;39.544;2.596;2023-03-23T15:53:55;18.60;82.20
74809;DHT22;63338;39.544;2.596;2023-03-23T15:56:21;18.60;82.20
74809;DHT22;63338;39.544;2.596;2023-03-23T15:58:48;18.60;82.00
74809;DHT22;63338;39.544;2.596;2023-03-23T16:01:28;18.60;82.10
74809;DHT22;63338;39.544;2.596;2023-03-23T16:04:22;18.50;82.20
74809;DHT22;63338;39.544;2.596;2023-03-23T16:06:50;18.50;82.20
74809;DHT22;63338;39.544;2.596;2023-03-23T16:09:18;18.50;82.30
74809;DHT22;63338;39.544;2.596;2023-03-23T16:11:45;18.50;82.20
74809;DHT22;63338;39.544;2.596;2023-03-23T16:14:14;18.50;82.50
74809;DHT22;63338;39.544;2.596;2023-03-23T16:16:48;18.60;82.50
74809;DHT22;63338;39.544;2.596;2023-03-23T16:19:15;18.40;82.30
74809;DHT22;63338;39.544;2.596;2023-03-23T16:21:42;18.50;82.50
74809;DHT22;63338;39.544;2.596;2023-03-23T16:24:09;18.60;82.20
74809;DHT22;63338;39.544;2.596;2023-03-23T16:26:35;18.60;82.40
74809;DHT22;63338;39.544;2.596;2023-03-23T16:29:08;18.40;82.60
74809;DHT22;63338;39.544;2.596;2023-03-23T16:31:34;18.40;82.80
74809;DHT22;63338;39.544;2.596;2023-03-23T16:34:00;18.50;82.70
74809;DHT22;63338;39.544;2.596;2023-03-23T16:36:29;18.60;82.80
74809;DHT22;63338;39.544;2.596;2023-03-23T16:38:55;18.50;82.70
74809;DHT22;63338;39.544;2.596;2023-03-23T16:41:21;18.50;82.40
74809;DHT22;63338;39.544;2.596;2023-03-23T16:43:47;18.40;82.40
74809;DHT22;63338;39.544;2.596;2023-03-23T16:46:13;18.40;82.60
74809;DHT22;63338;39.544;2.596;2023-03-23T16:48:39;18.40;82.90
74809;DHT22;63338;39.544;2.596;2023-03-23T16:51:05;18.40;83.00
74809;DHT22;63338;39.544;2.596;2023-03-23T16:53:31;18.20;83.40
74809;DHT22;63338;39.544;2.596;2023-03-23T16:55:58;18.20;83.30
74809;DHT22;63338;39.544;2.596;2023-03-23T16:58:24;18.10;84.60
74809;DHT22;63338;39.544;2.596;2023-03-23T17:00:51;18.20;83.70
74809;DHT22;63338;39.544;2.596;2023-03-23T17:03:19;18.00;84.80
74809;DHT22;63338;39.544;2.596;2023-03-23T17:05:47;18.00;85.00
74809;DHT22;63338;39.544;2.596;2023-03-23T17:08:13;18.00;85.00
74809;DHT22;63338;39.544;2.596;2023-03-23T17:10:40;18.00;85.00
74809;DHT22;63338;39.544;2.596;2023-03-23T17:13:09;18.10;84.90
74809;DHT22;63338;39.544;2.596;2023-03-23T17:15:37;18.00;85.10
74809;DHT22;63338;39.544;2.596;2023-03-23T17:18:04;18.00;85.10
74809;DHT22;63338;39.544;2.596;2023-03-23T17:20:31;17.90;85.00
74809;DHT22;63338;39.544;2.596;2023-03-23T17:22:57;18.00;85.10
74809;DHT22;63338;39.544;2.596;2023-03-23T17:25:25;17.80;85.10
74809;DHT22;63338;39.544;2.596;2023-03-23T17:27:51;17.90;85.30
74809;DHT22;63338;39.544;2.596;2023-03-23T17:30:18;17.70;85.40
74809;DHT22;63338;39.544;2.596;2023-03-23T17:32:44;17.80;85.50
74809;DHT22;63338;39.544;2.596;2023-03-23T17:35:12;17.80;85.50
74809;DHT22;63338;39.544;2.596;2023-03-23T17:37:38;17.70;85.70
74809;DHT22;63338;39.544;2.596;2023-03-23T17:40:06;17.60;85.90
74809;DHT22;63338;39.544;2.596;2023-03-23T17:42:36;17.70;85.70
74809;DHT22;63338;39.544;2.596;2023-03-23T17:45:03;17.70;85.60
74809;DHT22;63338;39.544;2.596;2023-03-23T17:47:31;17.60;85.50